Time;durP1;ratioP1;P1;durP2;ratioP2;P2;SDS_P1;SDS_P2;PMS_P1;PMS_P2;Temp;Humidity;BMP_temperature;BMP_pressure;BME280_temperature;BME280_humidity;BME280_pressure;Samples;Min_cycle;Max_cycle;Signal;HPM_P1;HPM_P2
2022/07/23 00:00:06;;;;;;;2.15;1.70;;;20.90;80.50;;;;;;5105853;28;20078;-58
2022/07/23 00:02:31;;;;;;;2.33;2.13;;;20.80;80.50;;;;;;5100938;27;20063;-58
2022/07/23 00:04:57;;;;;;;2.60;2.40;;;20.80;80.60;;;;;;5103954;28;20503;-58
2022/07/23 00:07:23;;;;;;;2.00;1.90;;;20.80;80.50;;;;;;5104443;28;20032;-58
2022/07/23 00:09:48;;;;;;;2.65;2.45;;;20.80;80.50;;;;;;5106989;28;20368;-58
2022/07/23 00:12:14;;;;;;;2.15;2.05;;;20.80;80.50;;;;;;5111230;28;20050;-58
2022/07/23 00:14:40;;;;;;;2.30;2.10;;;20.80;80.50;;;;;;5102990;28;20047;-58
2022/07/23 00:17:05;;;;;;;3.00;2.30;;;20.80;80.70;;;;;;5104107;27;20027;-58
2022/07/23 00:19:31;;;;;;;2.50;2.30;;;20.80;80.60;;;;;;5103025;27;20028;-58
2022/07/23 00:21:57;;;;;;;2.47;2.28;;;20.80;80.70;;;;;;5104661;28;20368;-58
2022/07/23 00:24:22;;;;;;;2.25;2.05;;;20.80;80.90;;;;;;5108236;27;20123;-58
2022/07/23 00:26:48;;;;;;;2.65;2.45;;;20.80;81.00;;;;;;5107506;27;20023;-58
2022/07/23 00:29:14;;;;;;;3.47;2.42;;;20.70;81.20;;;;;;5108992;27;20034;-58
2022/07/23 00:31:39;;;;;;;2.72;2.53;;;20.80;81.30;;;;;;5109874;28;20094;-58
2022/07/23 00:34:05;;;;;;;2.50;2.33;;;20.70;81.40;;;;;;5097399;28;20051;-58
2022/07/23 00:36:31;;;;;;;2.80;2.60;;;20.70;81.50;;;;;;5109997;28;20024;-58
2022/07/23 00:38:56;;;;;;;2.30;2.20;;;20.70;81.50;;;;;;5101448;28;20047;-58
2022/07/23 00:41:22;;;;;;;2.75;2.55;;;20.70;81.20;;;;;;5103595;27;20031;-58
2022/07/23 00:43:48;;;;;;;3.28;2.50;;;20.70;81.50;;;;;;5115344;27;20034;-58
2022/07/23 00:46:19;;;;;;;2.60;2.40;;;20.70;81.70;;;;;;5105353;28;20051;-58
2022/07/23 00:48:45;;;;;;;2.90;2.70;;;20.60;81.70;;;;;;5096895;28;20043;-58
2022/07/23 00:51:11;;;;;;;2.80;2.60;;;20.60;81.80;;;;;;5104270;27;20126;-58
2022/07/23 00:53:37;;;;;;;2.60;2.40;;;20.60;81.90;;;;;;5100182;27;20055;-58
2022/07/23 00:56:03;;;;;;;3.00;2.75;;;20.60;81.90;;;;;;5104117;27;20035;-58
2022/07/23 00:58:28;;;;;;;2.55;2.35;;;20.60;81.90;;;;;;5111213;27;20031;-59
2022/07/23 01:00:54;;;;;;;2.42;2.22;;;20.50;81.90;;;;;;5106178;27;20030;-58
2022/07/23 01:03:20;;;;;;;2.53;2.33;;;20.50;81.90;;;;;;5117345;27;20031;-58
2022/07/23 01:05:46;;;;;;;2.03;1.92;;;20.50;82.00;;;;;;5110169;27;20020;-58
2022/07/23 01:08:12;;;;;;;2.25;2.08;;;20.50;82.00;;;;;;5107909;27;20391;-58
2022/07/23 01:10:38;;;;;;;3.13;2.45;;;20.60;82.20;;;;;;5116201;27;20023;-59
2022/07/23 01:13:06;;;;;;;2.65;2.45;;;20.50;82.50;;;;;;5105322;28;20068;-58
2022/07/23 01:15:33;;;;;;;3.00;2.80;;;20.50;82.20;;;;;;5111357;27;20027;-58
2022/07/23 01:18:00;;;;;;;3.03;2.78;;;20.50;82.50;;;;;;5109352;27;20019;-58
2022/07/23 01:20:26;;;;;;;2.60;2.40;;;20.50;82.50;;;;;;5103716;27;20498;-58
2022/07/23 01:22:52;;;;;;;2.83;2.63;;;20.50;82.60;;;;;;5109033;27;20042;-58
2022/07/23 01:25:19;;;;;;;2.83;2.58;;;20.50;82.70;;;;;;5110300;27;20016;-58
2022/07/23 01:27:45;;;;;;;2.85;2.58;;;20.50;82.70;;;;;;5111115;27;20400;-58
2022/07/23 01:30:12;;;;;;;2.80;2.60;;;20.50;82.70;;;;;;5104190;27;20043;-58
2022/07/23 01:32:38;;;;;;;3.20;2.90;;;20.50;83.00;;;;;;5104125;27;20016;-58
2022/07/23 01:35:04;;;;;;;2.80;2.60;;;20.50;83.00;;;;;;5106820;28;20107;-58
2022/07/23 01:37:30;;;;;;;3.95;2.78;;;20.50;83.10;;;;;;5107157;27;20593;-58
2022/07/23 01:39:56;;;;;;;2.95;2.75;;;20.50;83.10;;;;;;5109574;27;20026;-57
2022/07/23 01:42:21;;;;;;;2.80;2.60;;;20.50;83.20;;;;;;5102992;27;20483;-58
2022/07/23 01:44:47;;;;;;;3.03;2.75;;;20.50;83.30;;;;;;5114348;27;20028;-58
2022/07/23 01:47:13;;;;;;;4.60;2.60;;;20.50;83.30;;;;;;5115463;27;20031;-58
2022/07/23 01:49:38;;;;;;;2.80;2.60;;;20.40;83.40;;;;;;5109303;27;20393;-58
2022/07/23 01:52:08;;;;;;;3.40;3.10;;;20.40;83.50;;;;;;5114824;27;20024;-58
2022/07/23 01:54:35;;;;;;;3.35;3.03;;;20.40;83.50;;;;;;5111368;27;20027;-58
2022/07/23 01:57:00;;;;;;;3.03;2.53;;;20.50;83.50;;;;;;5106148;27;20169;-58
2022/07/23 01:59:27;;;;;;;2.97;2.63;;;20.40;83.40;;;;;;5105133;27;20099;-58
2022/07/23 02:01:53;;;;;;;3.15;2.85;;;20.40;83.40;;;;;;5113955;27;20023;-58
2022/07/23 02:04:22;;;;;;;2.83;2.63;;;20.40;83.50;;;;;;5108470;27;20028;-57
2022/07/23 02:06:48;;;;;;;2.80;2.60;;;20.40;83.60;;;;;;5103159;28;20072;-58
2022/07/23 02:09:14;;;;;;;2.60;2.40;;;20.40;83.70;;;;;;5115993;27;20412;-58
2022/07/23 02:11:40;;;;;;;2.80;2.60;;;20.40;83.60;;;;;;5110584;27;20023;-58
2022/07/23 02:14:05;;;;;;;3.08;2.80;;;20.40;83.50;;;;;;5108502;27;20026;-58
2022/07/23 02:16:31;;;;;;;3.20;2.90;;;20.40;83.60;;;;;;5100359;27;20698;-58
2022/07/23 02:18:57;;;;;;;3.47;3.17;;;20.30;83.70;;;;;;5095884;27;20105;-58
2022/07/23 02:21:23;;;;;;;3.33;3.00;;;20.30;83.80;;;;;;5114430;27;20036;-58
2022/07/23 02:23:49;;;;;;;2.88;2.67;;;20.30;84.00;;;;;;5106820;27;20019;-58
2022/07/23 02:26:14;;;;;;;3.28;2.97;;;20.30;83.90;;;;;;5112032;27;20031;-58
2022/07/23 02:28:40;;;;;;;3.50;2.90;;;20.30;84.10;;;;;;5111368;27;20023;-58
2022/07/23 02:31:06;;;;;;;2.78;2.58;;;20.30;84.10;;;;;;5116140;27;20023;-58
2022/07/23 02:33:32;;;;;;;3.30;3.00;;;20.30;84.20;;;;;;5103502;27;20096;-58
2022/07/23 02:35:58;;;;;;;3.92;3.00;;;20.30;84.20;;;;;;5113452;27;20023;-58
2022/07/23 02:38:24;;;;;;;3.42;3.13;;;20.30;84.50;;;;;;5107074;27;20547;-58
2022/07/23 02:40:49;;;;;;;3.20;2.90;;;20.30;84.60;;;;;;5109946;27;20020;-58
2022/07/23 02:43:15;;;;;;;3.20;2.90;;;20.30;84.50;;;;;;5108384;28;20015;-58
2022/07/23 02:45:40;;;;;;;3.40;3.03;;;20.30;84.50;;;;;;5105507;27;20084;-58
2022/07/23 02:48:06;;;;;;;3.10;2.80;;;20.30;84.50;;;;;;5112333;27;20023;-58
2022/07/23 02:50:32;;;;;;;2.80;2.60;;;20.30;84.40;;;;;;5113224;27;20070;-58
2022/07/23 02:52:57;;;;;;;3.03;2.70;;;20.30;85.20;;;;;;5110980;28;20024;-58
2022/07/23 02:55:23;;;;;;;2.95;2.63;;;20.30;84.40;;;;;;5103013;27;20077;-58
2022/07/23 02:57:49;;;;;;;4.05;2.88;;;20.40;84.60;;;;;;5104574;28;20357;-58
2022/07/23 03:00:15;;;;;;;3.65;3.05;;;20.40;84.60;;;;;;5097412;28;20035;-58
2022/07/23 03:02:40;;;;;;;3.10;2.88;;;20.40;84.40;;;;;;5097353;28;20020;-58
2022/07/23 03:05:06;;;;;;;3.15;2.85;;;20.40;84.10;;;;;;5101268;28;20490;-58
2022/07/23 03:07:32;;;;;;;3.65;2.63;;;20.50;83.80;;;;;;5107340;28;20613;-58
2022/07/23 03:09:58;;;;;;;3.20;2.90;;;20.50;83.60;;;;;;5099670;28;20027;-58
2022/07/23 03:12:23;;;;;;;5.18;2.80;;;20.50;83.60;;;;;;5109780;28;20101;-58
2022/07/23 03:14:49;;;;;;;2.88;2.67;;;20.60;83.50;;;;;;5102959;27;20057;-57
2022/07/23 03:17:15;;;;;;;3.30;3.00;;;20.60;83.40;;;;;;5111139;27;20030;-58
2022/07/23 03:19:41;;;;;;;2.85;2.65;;;20.60;83.00;;;;;;5115754;27;20032;-58
2022/07/23 03:22:07;;;;;;;3.15;2.92;;;20.70;82.90;;;;;;5106343;27;20390;-58
2022/07/23 03:27:17;;;;;;;3.03;2.83;;;20.90;82.90;;;;;;5110929;27;20050;-58
2022/07/23 03:29:42;;;;;;;3.80;3.30;;;21.00;82.90;;;;;;5107623;28;20399;-58
2022/07/23 03:32:08;;;;;;;3.33;3.00;;;21.10;82.90;;;;;;5110310;27;20032;-59
2022/07/23 03:34:34;;;;;;;3.78;2.90;;;21.20;83.10;;;;;;5115228;28;20016;-58
2022/07/23 03:36:59;;;;;;;3.20;2.90;;;21.30;83.10;;;;;;5110669;27;20024;-56
2022/07/23 03:39:25;;;;;;;3.50;3.20;;;21.40;83.00;;;;;;5111251;28;20028;-55
2022/07/23 03:41:51;;;;;;;3.40;3.10;;;21.60;83.40;;;;;;5112528;28;20030;-56
2022/07/23 03:44:16;;;;;;;3.25;2.95;;;21.80;83.60;;;;;;5116490;27;20023;-56
2022/07/23 03:46:42;;;;;;;3.30;3.00;;;22.00;84.60;;;;;;5116374;27;20028;-56
2022/07/23 03:49:07;;;;;;;2.85;2.65;;;22.30;83.90;;;;;;5105183;27;20387;-56
2022/07/23 03:51:33;;;;;;;3.35;3.05;;;22.60;83.40;;;;;;5114671;27;20051;-56
2022/07/23 03:53:59;;;;;;;2.95;2.75;;;22.90;82.70;;;;;;5103346;28;20016;-56
2022/07/23 03:56:25;;;;;;;3.30;3.00;;;23.30;81.60;;;;;;5110229;28;20039;-56
2022/07/23 03:58:51;;;;;;;2.85;2.65;;;23.90;80.40;;;;;;5123655;27;20121;-56
2022/07/23 04:01:17;;;;;;;3.35;2.78;;;24.50;79.10;;;;;;5115330;27;20578;-56
2022/07/23 04:03:42;;;;;;;3.80;2.75;;;25.20;77.20;;;;;;5111664;27;20039;-56
2022/07/23 04:06:08;;;;;;;2.67;2.47;;;26.00;74.90;;;;;;5113106;28;20399;-56
2022/07/23 04:08:34;;;;;;;2.80;2.60;;;26.70;73.20;;;;;;5113324;27;20207;-56
2022/07/23 04:10:59;;;;;;;3.88;2.60;;;27.50;71.10;;;;;;5107133;28;20383;-56
2022/07/23 04:13:25;;;;;;;2.65;2.45;;;28.20;69.30;;;;;;5113560;27;20023;-56
2022/07/23 04:15:51;;;;;;;2.83;2.50;;;28.80;67.80;;;;;;5120666;27;20015;-56
2022/07/23 04:18:17;;;;;;;2.70;2.50;;;29.40;66.10;;;;;;5113351;28;20106;-56
2022/07/23 04:20:44;;;;;;;2.40;2.20;;;30.00;65.10;;;;;;5114062;28;20081;-57
2022/07/23 04:23:09;;;;;;;2.53;2.33;;;30.50;63.70;;;;;;5104376;28;20104;-57
2022/07/23 04:25:35;;;;;;;2.70;2.50;;;31.10;62.70;;;;;;5114047;27;20110;-56
2022/07/23 04:28:01;;;;;;;2.38;2.25;;;31.60;61.20;;;;;;5111530;27;20015;-57
2022/07/23 04:30:27;;;;;;;2.40;2.20;;;32.00;60.10;;;;;;5112718;27;20031;-56
2022/07/23 04:32:52;;;;;;;4.05;2.70;;;32.40;59.20;;;;;;5108400;27;20034;-57
2022/07/23 04:35:18;;;;;;;2.20;2.05;;;32.80;58.10;;;;;;5105793;28;20100;-57
2022/07/23 04:37:44;;;;;;;2.60;2.40;;;33.20;57.80;;;;;;5107566;28;20477;-56
2022/07/23 04:40:11;;;;;;;2.17;2.05;;;33.60;57.10;;;;;;5108704;28;20028;-56
2022/07/23 04:42:36;;;;;;;2.60;2.40;;;33.80;56.10;;;;;;5101129;27;20024;-56
2022/07/23 04:45:03;;;;;;;2.38;2.17;;;34.10;55.70;;;;;;5099530;27;20028;-56
2022/07/23 04:47:30;;;;;;;2.38;1.92;;;34.40;55.20;;;;;;5103818;28;20437;-56
2022/07/23 04:49:56;;;;;;;2.63;2.30;;;34.70;54.50;;;;;;5110316;28;20054;-57
2022/07/23 04:52:21;;;;;;;2.38;2.10;;;34.90;54.10;;;;;;5109752;28;20114;-57
2022/07/23 04:54:47;;;;;;;2.25;2.13;;;35.20;53.40;;;;;;5106142;27;20031;-57
2022/07/23 04:57:13;;;;;;;2.58;2.38;;;35.40;53.10;;;;;;5109781;27;20043;-57
2022/07/23 04:59:38;;;;;;;2.20;2.10;;;35.70;52.30;;;;;;5115674;27;20027;-56
2022/07/23 05:02:04;;;;;;;2.42;2.03;;;35.80;51.90;;;;;;5117300;27;20039;-57
2022/07/23 05:04:31;;;;;;;2.35;2.15;;;36.00;51.80;;;;;;5107166;27;20020;-56
2022/07/23 05:06:57;;;;;;;2.20;2.10;;;36.10;51.50;;;;;;5101661;28;20032;-56
2022/07/23 05:09:22;;;;;;;1.75;1.65;;;36.20;51.00;;;;;;5105088;28;20032;-57
2022/07/23 05:11:48;;;;;;;2.05;1.95;;;36.40;50.80;;;;;;5105590;28;20486;-57
2022/07/23 05:14:14;;;;;;;1.85;1.75;;;36.50;50.40;;;;;;5114774;27;20039;-56
2022/07/23 05:16:40;;;;;;;2.22;2.03;;;36.70;50.30;;;;;;5108942;28;20085;-57
2022/07/23 05:19:05;;;;;;;2.00;1.90;;;36.80;50.00;;;;;;5112161;28;20028;-57
2022/07/23 05:21:31;;;;;;;1.52;1.52;;;36.90;49.80;;;;;;5107850;28;20030;-56
2022/07/23 05:23:57;;;;;;;2.63;1.83;;;36.90;49.70;;;;;;5110919;28;20078;-57
2022/07/23 05:26:22;;;;;;;2.05;1.95;;;37.00;49.30;;;;;;5105811;28;20116;-57
2022/07/23 05:28:48;;;;;;;2.00;1.90;;;37.00;48.40;;;;;;5117069;27;20031;-56
2022/07/23 05:31:14;;;;;;;1.85;1.75;;;36.90;47.50;;;;;;5101465;28;20022;-56
2022/07/23 05:33:39;;;;;;;1.70;1.60;;;36.60;47.10;;;;;;5106028;28;20023;-56
2022/07/23 05:36:05;;;;;;;2.10;1.90;;;36.10;47.30;;;;;;5100515;28;20434;-57
2022/07/23 05:38:32;;;;;;;2.60;2.40;;;35.40;47.80;;;;;;5100108;28;20110;-57
2022/07/23 05:40:58;;;;;;;2.63;2.42;;;34.50;48.30;;;;;;5096069;27;20077;-56
2022/07/23 05:43:24;;;;;;;2.85;2.60;;;33.70;49.30;;;;;;5107840;27;20435;-57
2022/07/23 05:45:50;;;;;;;2.47;2.28;;;32.80;50.20;;;;;;5106812;28;20035;-56
2022/07/23 05:48:15;;;;;;;2.60;2.40;;;31.90;51.10;;;;;;5106582;28;20023;-56
2022/07/23 05:50:41;;;;;;;2.50;2.30;;;31.20;52.00;;;;;;5109283;28;20044;-56
2022/07/23 05:53:07;;;;;;;2.30;2.17;;;30.60;52.80;;;;;;5109753;27;20361;-56
2022/07/23 05:55:32;;;;;;;3.45;2.40;;;30.00;53.60;;;;;;5105081;27;20360;-56
2022/07/23 05:57:59;;;;;;;2.88;2.67;;;29.50;54.40;;;;;;5117484;27;20480;-56
2022/07/23 06:00:27;;;;;;;2.75;2.55;;;29.00;55.00;;;;;;5103926;28;20762;-56
2022/07/23 06:02:53;;;;;;;2.50;2.30;;;28.70;55.70;;;;;;5099155;28;20111;-56
2022/07/23 06:05:19;;;;;;;2.40;2.20;;;28.40;56.30;;;;;;5108096;27;20028;-56
2022/07/23 06:07:44;;;;;;;2.80;2.60;;;28.10;56.80;;;;;;5108356;27;20073;-58
2022/07/23 06:10:10;;;;;;;2.70;2.50;;;27.90;57.30;;;;;;5102515;28;20016;-59
2022/07/23 06:12:36;;;;;;;2.47;2.28;;;27.70;57.70;;;;;;5105128;28;20019;-58
2022/07/23 06:15:03;;;;;;;2.60;2.40;;;27.50;58.10;;;;;;5079994;28;20560;-59
2022/07/23 06:17:29;;;;;;;2.70;2.50;;;27.40;58.50;;;;;;5102226;27;20024;-59
2022/07/23 06:19:55;;;;;;;2.60;2.40;;;27.20;58.60;;;;;;5103970;27;20103;-59
2022/07/23 06:22:22;;;;;;;2.42;2.22;;;27.00;59.10;;;;;;5105606;28;20077;-59
2022/07/23 06:24:48;;;;;;;2.85;2.40;;;26.90;59.40;;;;;;5097439;28;20023;-59
2022/07/23 06:27:14;;;;;;;3.72;2.88;;;26.80;59.70;;;;;;5105799;28;20038;-58
2022/07/23 06:29:40;;;;;;;2.97;2.70;;;26.60;60.00;;;;;;5108554;28;20472;-59
2022/07/23 06:32:06;;;;;;;2.80;2.60;;;26.60;60.40;;;;;;5103761;27;20023;-59
2022/07/23 06:34:33;;;;;;;3.72;2.90;;;26.50;60.70;;;;;;5089029;28;20066;-59
2022/07/23 06:36:59;;;;;;;3.25;2.70;;;26.50;60.90;;;;;;5098759;28;20020;-59
2022/07/23 06:39:25;;;;;;;3.03;2.72;;;26.40;61.30;;;;;;5091956;28;20387;-59
2022/07/23 06:41:50;;;;;;;3.17;2.88;;;26.30;61.40;;;;;;5095577;28;20027;-59
2022/07/23 06:44:16;;;;;;;2.75;2.55;;;26.20;61.70;;;;;;5104821;27;20023;-59
2022/07/23 06:46:42;;;;;;;3.42;3.13;;;26.20;61.90;;;;;;5098967;27;20032;-59
2022/07/23 06:49:07;;;;;;;3.58;3.28;;;26.10;62.10;;;;;;5094571;28;20066;-59
2022/07/23 06:51:33;;;;;;;3.55;3.13;;;26.00;63.00;;;;;;5098349;28;20115;-59
2022/07/23 06:53:59;;;;;;;3.03;2.72;;;26.00;62.60;;;;;;5096827;27;20028;-59
2022/07/23 06:56:25;;;;;;;2.38;2.28;;;26.00;62.80;;;;;;5103497;28;20434;-59
2022/07/23 06:58:51;;;;;;;3.25;2.83;;;25.90;63.10;;;;;;5102084;28;20024;-59
2022/07/23 07:01:17;;;;;;;3.45;3.15;;;25.90;63.20;;;;;;5101039;27;20034;-59
2022/07/23 07:03:43;;;;;;;3.25;2.97;;;25.80;63.30;;;;;;5103065;28;20480;-59
2022/07/23 07:06:09;;;;;;;3.20;2.90;;;25.80;63.60;;;;;;5099459;28;20353;-59
2022/07/23 07:08:34;;;;;;;2.95;2.75;;;25.80;63.70;;;;;;5111535;27;20431;-59
2022/07/23 07:11:00;;;;;;;3.20;2.90;;;25.80;63.80;;;;;;5108890;28;20483;-59
2022/07/23 07:13:26;;;;;;;2.97;2.70;;;25.80;64.00;;;;;;5108186;28;20047;-58
2022/07/23 07:15:51;;;;;;;3.60;3.30;;;25.70;64.20;;;;;;5101877;28;20023;-59
2022/07/23 07:18:17;;;;;;;3.38;3.00;;;25.70;64.40;;;;;;5110839;28;20023;-59
2022/07/23 07:20:43;;;;;;;3.28;2.90;;;25.70;64.60;;;;;;5109674;28;20031;-58
2022/07/23 07:23:08;;;;;;;3.45;3.15;;;25.70;64.60;;;;;;5102357;28;20084;-58
2022/07/23 07:25:34;;;;;;;3.42;3.13;;;25.70;64.50;;;;;;5109878;28;20032;-58
2022/07/23 07:28:00;;;;;;;3.55;3.25;;;25.70;64.60;;;;;;5087490;28;20020;-59
2022/07/23 07:30:26;;;;;;;3.80;3.20;;;25.70;64.70;;;;;;5100713;28;20023;-59
2022/07/23 07:32:51;;;;;;;4.85;3.00;;;25.70;64.80;;;;;;5105051;28;20114;-58
2022/07/23 07:35:17;;;;;;;3.42;3.13;;;25.70;65.10;;;;;;5099915;28;20024;-59
2022/07/23 07:37:43;;;;;;;3.30;3.00;;;25.70;65.20;;;;;;5099805;28;20036;-58
2022/07/23 07:40:09;;;;;;;3.28;2.97;;;25.70;65.40;;;;;;5099472;28;20027;-59
2022/07/23 07:42:34;;;;;;;3.40;3.08;;;25.70;65.40;;;;;;5101327;28;20020;-59
2022/07/23 07:45:00;;;;;;;3.58;3.28;;;25.70;65.50;;;;;;5101114;28;20028;-58
2022/07/23 07:47:26;;;;;;;3.63;3.33;;;25.70;65.60;;;;;;5100349;28;20032;-59
2022/07/23 07:49:52;;;;;;;3.38;3.08;;;25.70;65.70;;;;;;5108318;28;20372;-59
2022/07/23 07:52:17;;;;;;;3.28;2.97;;;25.80;65.90;;;;;;5096161;28;20031;-59
2022/07/23 07:54:43;;;;;;;4.45;3.10;;;25.80;65.70;;;;;;5108132;28;20031;-59
2022/07/23 07:57:09;;;;;;;3.30;3.00;;;25.80;65.50;;;;;;5105133;28;20023;-59
2022/07/23 07:59:35;;;;;;;3.80;3.13;;;25.80;65.20;;;;;;5110743;28;20141;-59
2022/07/23 08:02:01;;;;;;;3.25;2.95;;;25.80;65.30;;;;;;5099657;27;20812;-59
2022/07/23 08:04:27;;;;;;;2.90;2.65;;;25.80;65.80;;;;;;5100627;27;20236;-58
2022/07/23 08:06:52;;;;;;;2.83;2.60;;;25.80;65.20;;;;;;5109230;27;20028;-59
2022/07/23 08:09:18;;;;;;;3.28;2.97;;;25.80;65.20;;;;;;5104216;28;20420;-59
2022/07/23 08:11:44;;;;;;;3.63;2.95;;;25.80;65.20;;;;;;5103811;27;20023;-59
2022/07/23 08:14:10;;;;;;;2.97;2.78;;;25.80;65.30;;;;;;5103572;27;20012;-59
2022/07/23 08:16:36;;;;;;;3.10;2.90;;;25.80;65.50;;;;;;5099677;27;20042;-58
2022/07/23 08:19:02;;;;;;;2.83;2.40;;;25.80;65.40;;;;;;5099257;27;20662;-59
2022/07/23 08:21:28;;;;;;;3.10;2.83;;;25.80;65.60;;;;;;5095161;27;20415;-59
2022/07/23 08:23:53;;;;;;;2.88;2.67;;;25.80;65.30;;;;;;5102047;28;20790;-59
2022/07/23 08:26:19;;;;;;;3.50;2.95;;;25.80;65.40;;;;;;5107829;27;20565;-59
2022/07/23 08:28:44;;;;;;;2.97;2.78;;;25.80;65.30;;;;;;5095259;28;20020;-59
2022/07/23 08:31:11;;;;;;;3.25;2.90;;;25.80;65.40;;;;;;5103999;27;20038;-59
2022/07/23 08:33:37;;;;;;;2.97;2.60;;;25.80;65.60;;;;;;5101685;27;20051;-59
2022/07/23 08:36:04;;;;;;;2.70;2.50;;;25.80;65.60;;;;;;5101249;28;20028;-59
2022/07/23 08:38:30;;;;;;;2.95;2.60;;;25.80;65.50;;;;;;5100957;27;20513;-59
2022/07/23 08:40:59;;;;;;;3.30;3.00;;;25.80;65.40;;;;;;5104395;27;20028;-58
2022/07/23 08:43:27;;;;;;;2.80;2.60;;;25.80;65.50;;;;;;5105861;28;20038;-59
2022/07/23 08:45:56;;;;;;;2.78;2.58;;;25.80;65.40;;;;;;5094667;27;20420;-58
2022/07/23 08:48:25;;;;;;;2.83;2.63;;;25.80;65.70;;;;;;5100312;27;20519;-59
2022/07/23 08:50:54;;;;;;;2.58;2.38;;;25.80;65.70;;;;;;5093915;28;20039;-59
2022/07/23 08:53:21;;;;;;;2.65;2.45;;;25.80;65.70;;;;;;5109876;27;20032;-59
2022/07/23 08:55:50;;;;;;;3.65;2.70;;;25.80;65.60;;;;;;5096427;28;20016;-59
2022/07/23 08:58:16;;;;;;;2.88;2.63;;;25.80;65.80;;;;;;5108365;28;20020;-59
2022/07/23 09:00:42;;;;;;;2.78;2.58;;;25.70;65.30;;;;;;5099804;28;20038;-59
2022/07/23 09:03:15;;;;;;;3.20;2.90;;;25.70;65.30;;;;;;5093098;28;20035;-59
2022/07/23 09:05:41;;;;;;;3.38;2.60;;;25.70;65.40;;;;;;5098077;28;20055;-59
2022/07/23 09:08:13;;;;;;;3.25;2.95;;;25.60;65.30;;;;;;5100618;27;20557;-59
2022/07/23 09:11:03;;;;;;;3.00;2.70;;;25.60;65.40;;;;;;5097117;28;20067;-58
2022/07/23 09:13:33;;;;;;;2.67;2.47;;;25.60;65.50;;;;;;5099849;27;20097;-59
2022/07/23 09:16:02;;;;;;;2.70;2.50;;;25.60;65.30;;;;;;5107097;27;20510;-59
2022/07/23 09:18:38;;;;;;;2.88;2.25;;;25.60;65.30;;;;;;5105500;28;20407;-59
2022/07/23 09:21:17;;;;;;;2.80;2.60;;;25.50;65.40;;;;;;5103029;27;20039;-59
2022/07/23 09:23:45;;;;;;;2.45;2.30;;;25.50;65.60;;;;;;5101049;28;20036;-59
2022/07/23 09:26:26;;;;;;;2.72;2.53;;;25.50;65.50;;;;;;5103137;27;20023;-59
2022/07/23 09:28:56;;;;;;;2.30;2.20;;;25.50;65.70;;;;;;5105574;27;20027;-59
2022/07/23 09:31:23;;;;;;;2.05;1.90;;;25.50;65.30;;;;;;5103721;27;20035;-59
2022/07/23 09:33:49;;;;;;;1.85;1.80;;;25.50;65.10;;;;;;5105385;27;20084;-59
2022/07/23 09:36:15;;;;;;;2.83;1.92;;;25.50;65.30;;;;;;5111857;27;20478;-59
2022/07/23 09:38:49;;;;;;;2.15;1.95;;;25.50;65.30;;;;;;5108261;27;20324;-59
2022/07/23 09:41:15;;;;;;;2.08;1.98;;;25.60;65.50;;;;;;5111313;27;20027;-59
2022/07/23 09:43:41;;;;;;;1.92;1.83;;;25.60;66.10;;;;;;5105976;27;20028;-59
2022/07/23 09:46:27;;;;;;;1.90;1.80;;;25.60;64.90;;;;;;5104045;27;20043;-59
2022/07/23 09:49:12;;;;;;;2.65;1.95;;;25.70;64.70;;;;;;5098752;27;20036;-59
2022/07/23 09:51:55;;;;;;;2.22;2.13;;;25.80;64.20;;;;;;5104365;27;20578;-59
2022/07/23 09:54:44;;;;;;;2.00;1.90;;;25.80;64.10;;;;;;5106857;27;20024;-59
2022/07/23 09:57:15;;;;;;;2.47;2.28;;;25.80;64.50;;;;;;5103239;27;20019;-59
2022/07/23 09:59:42;;;;;;;3.05;2.67;;;25.80;63.70;;;;;;5104553;27;20094;-59
2022/07/23 10:02:11;;;;;;;2.28;2.13;;;25.70;64.00;;;;;;5101223;27;20376;-58
2022/07/23 10:04:38;;;;;;;2.13;2.03;;;25.70;64.00;;;;;;5100290;27;20080;-59
2022/07/23 10:07:06;;;;;;;2.20;2.00;;;25.70;64.00;;;;;;5101295;27;20122;-59
2022/07/23 10:09:34;;;;;;;1.95;1.85;;;25.70;64.20;;;;;;5083315;28;20089;-59
2022/07/23 10:14:34;;;;;;;3.03;2.05;;;25.80;64.20;;;;;;5099531;27;20052;-59
2022/07/23 10:17:03;;;;;;;2.05;1.95;;;25.70;63.90;;;;;;5102415;27;20074;-59
2022/07/23 10:19:30;;;;;;;2.00;1.90;;;25.70;63.90;;;;;;5114046;27;20487;-59
2022/07/23 10:22:00;;;;;;;2.40;2.20;;;25.80;64.20;;;;;;5106497;27;20387;-58
2022/07/23 10:25:00;;;;;;;2.40;2.20;;;25.80;64.50;;;;;;5110928;27;20024;-59
2022/07/23 10:27:50;;;;;;;1.95;1.85;;;25.80;65.00;;;;;;5097285;27;20388;-59
2022/07/23 10:30:19;;;;;;;1.83;1.73;;;25.80;64.80;;;;;;5098331;27;20111;-59
2022/07/23 10:32:50;;;;;;;2.00;1.90;;;25.80;64.40;;;;;;5102979;27;20035;-59
2022/07/23 10:35:26;;;;;;;;;;;25.80;64.40;;;;;;5100351;28;20142;-59
2022/07/23 10:38:00;;;;;;;2.47;2.28;;;25.80;64.70;;;;;;5099878;27;19991;-59
2022/07/23 10:40:26;;;;;;;2.70;2.45;;;25.90;64.60;;;;;;5097495;28;20474;-59
2022/07/23 10:42:54;;;;;;;2.38;2.05;;;25.90;64.40;;;;;;5096646;28;20413;-59
2022/07/23 10:45:25;;;;;;;2.35;2.15;;;25.90;64.10;;;;;;5093587;28;20032;-58
2022/07/23 10:47:51;;;;;;;2.40;2.20;;;25.90;64.30;;;;;;5103638;27;20035;-59
2022/07/23 10:50:34;;;;;;;2.45;2.25;;;25.90;64.40;;;;;;5103136;28;20024;-59
2022/07/23 10:53:06;;;;;;;2.38;2.17;;;25.90;64.40;;;;;;5093651;28;20069;-59
2022/07/23 10:55:32;;;;;;;2.00;1.90;;;25.90;64.60;;;;;;5097962;28;20042;-59
2022/07/23 10:57:58;;;;;;;3.03;2.15;;;25.90;64.70;;;;;;5090009;28;20020;-59
2022/07/23 11:00:29;;;;;;;2.40;2.20;;;26.00;65.10;;;;;;5100934;28;20046;-59
2022/07/23 11:02:58;;;;;;;2.10;2.00;;;26.00;65.00;;;;;;5105561;28;20102;-58
2022/07/23 11:05:38;;;;;;;2.40;2.20;;;26.00;64.70;;;;;;5105083;28;20505;-59
2022/07/23 11:08:04;;;;;;;3.63;2.63;;;26.00;64.40;;;;;;5108299;28;20042;-59
2022/07/23 11:10:38;;;;;;;2.50;2.30;;;26.00;64.30;;;;;;5102514;28;20463;-59
2022/07/23 11:13:22;;;;;;;2.47;2.28;;;26.10;64.50;;;;;;5113177;27;20110;-59
2022/07/23 11:16:04;;;;;;;2.38;2.20;;;26.00;64.60;;;;;;5093573;28;20020;-59
2022/07/23 11:18:48;;;;;;;2.38;2.17;;;26.00;64.60;;;;;;5108401;28;20130;-59
2022/07/23 11:21:31;;;;;;;2.20;2.10;;;26.00;64.50;;;;;;5116201;28;20043;-59
2022/07/23 11:24:18;;;;;;;2.00;1.90;;;25.90;63.90;;;;;;5113639;28;20069;-59
2022/07/23 11:26:48;;;;;;;3.55;2.50;;;25.90;64.60;;;;;;5106992;28;20475;-59
2022/07/23 11:29:26;;;;;;;2.30;2.10;;;25.90;64.10;;;;;;5101524;28;20364;-59
2022/07/23 11:32:44;;;;;;;2.30;2.10;;;25.90;64.20;;;;;;5110269;28;20016;-58
2022/07/23 11:35:28;;;;;;;2.03;1.92;;;25.90;64.00;;;;;;5052513;28;20045;-58
2022/07/23 11:38:22;;;;;;;3.28;2.40;;;25.90;64.20;;;;;;5110388;27;20122;-59
2022/07/23 11:40:50;;;;;;;1.92;1.83;;;26.00;64.40;;;;;;5103656;27;20036;-59
2022/07/23 11:43:17;;;;;;;2.00;1.90;;;26.00;64.60;;;;;;5112478;27;20019;-59
2022/07/23 11:45:48;;;;;;;2.53;2.33;;;26.00;64.70;;;;;;5108861;27;20047;-59
2022/07/23 11:48:26;;;;;;;2.42;2.22;;;26.00;64.90;;;;;;5087984;28;20537;-59
2022/07/23 11:50:53;;;;;;;2.30;2.10;;;26.00;64.60;;;;;;5106210;28;20054;-59
2022/07/23 11:53:30;;;;;;;3.13;2.92;;;26.10;64.70;;;;;;5111146;27;20035;-59
2022/07/23 11:56:09;;;;;;;2.80;2.60;;;26.10;64.60;;;;;;5106990;27;20085;-59
2022/07/23 11:58:35;;;;;;;3.72;3.35;;;26.00;64.50;;;;;;5111364;28;20051;-59
2022/07/23 12:01:01;;;;;;;3.80;3.00;;;26.10;64.80;;;;;;5110119;28;20104;-59
2022/07/23 12:03:27;;;;;;;2.92;2.63;;;26.10;65.20;;;;;;5111953;28;20034;-59
2022/07/23 12:05:57;;;;;;;2.45;2.25;;;26.10;65.20;;;;;;5105022;28;20023;-59
2022/07/23 12:08:23;;;;;;;2.35;2.17;;;26.10;64.90;;;;;;5110396;27;20487;-59
2022/07/23 12:10:49;;;;;;;2.55;2.35;;;26.10;65.10;;;;;;5117743;27;20027;-59
2022/07/23 12:13:20;;;;;;;2.75;2.55;;;26.10;65.20;;;;;;5100319;28;20013;-59
2022/07/23 12:15:48;;;;;;;2.33;2.13;;;26.10;64.90;;;;;;5108906;28;20057;-59
2022/07/23 12:18:18;;;;;;;1.85;1.75;;;26.10;64.90;;;;;;5113839;27;20062;-59
2022/07/23 12:20:47;;;;;;;1.98;1.88;;;26.10;65.00;;;;;;5107592;28;20023;-59
2022/07/23 12:23:14;;;;;;;1.92;1.83;;;26.10;64.80;;;;;;5103449;28;20066;-59
2022/07/23 12:25:42;;;;;;;2.08;1.98;;;26.10;64.50;;;;;;5111654;28;20020;-59
2022/07/23 12:28:12;;;;;;;2.22;2.13;;;26.10;63.90;;;;;;5103928;27;20479;-59
2022/07/23 12:30:58;;;;;;;2.10;2.00;;;26.20;64.00;;;;;;5103234;28;20066;-59
2022/07/23 12:33:26;;;;;;;3.38;1.83;;;26.20;64.40;;;;;;5119162;27;20253;-59
2022/07/23 12:35:54;;;;;;;2.60;2.00;;;26.20;64.30;;;;;;5105226;28;20098;-59
2022/07/23 12:38:22;;;;;;;2.40;2.20;;;26.20;64.20;;;;;;5098993;28;20563;-59
2022/07/23 12:40:50;;;;;;;2.22;2.03;;;26.20;64.20;;;;;;5104170;28;20020;-59
2022/07/23 12:43:27;;;;;;;2.05;1.85;;;26.10;64.20;;;;;;5103975;27;20024;-59
2022/07/23 12:45:56;;;;;;;2.28;2.08;;;26.20;64.60;;;;;;5109745;28;20055;-59
2022/07/23 12:48:51;;;;;;;2.33;2.13;;;26.20;65.00;;;;;;5106180;28;20063;-59
2022/07/23 12:51:18;;;;;;;2.35;2.13;;;26.20;65.00;;;;;;5108148;28;20036;-58
2022/07/23 12:53:53;;;;;;;2.50;2.30;;;26.20;65.00;;;;;;5102027;28;20020;-59
2022/07/23 12:56:26;;;;;;;2.05;1.90;;;26.20;64.90;;;;;;5108395;27;20118;-59